sensor_id;sensor_type;location;lat;lon;timestamp;P1;durP1;ratioP1;P2;durP2;ratioP2
74267;SDS011;62638;51.362;12.472;2022-08-19T00:01:37;47.50;;;25.60;;
74267;SDS011;62638;51.362;12.472;2022-08-19T00:04:05;46.03;;;24.92;;
74267;SDS011;62638;51.362;12.472;2022-08-19T00:06:33;43.22;;;23.55;;
74267;SDS011;62638;51.362;12.472;2022-08-19T00:09:00;44.88;;;24.20;;
74267;SDS011;62638;51.362;12.472;2022-08-19T00:11:27;46.13;;;25.33;;
74267;SDS011;62638;51.362;12.472;2022-08-19T00:13:55;44.97;;;26.85;;
74267;SDS011;62638;51.362;12.472;2022-08-19T00:16:21;49.28;;;27.08;;
74267;SDS011;62638;51.362;12.472;2022-08-19T00:18:48;53.03;;;26.75;;
74267;SDS011;62638;51.362;12.472;2022-08-19T00:21:13;49.53;;;25.13;;
74267;SDS011;62638;51.362;12.472;2022-08-19T00:23:39;48.78;;;25.63;;
74267;SDS011;62638;51.362;12.472;2022-08-19T00:26:06;47.38;;;25.40;;
74267;SDS011;62638;51.362;12.472;2022-08-19T00:28:32;51.05;;;24.20;;
74267;SDS011;62638;51.362;12.472;2022-08-19T00:30:58;50.22;;;25.90;;
74267;SDS011;62638;51.362;12.472;2022-08-19T00:33:24;50.13;;;25.55;;
74267;SDS011;62638;51.362;12.472;2022-08-19T00:35:49;52.80;;;27.63;;
74267;SDS011;62638;51.362;12.472;2022-08-19T00:38:14;56.87;;;27.93;;
74267;SDS011;62638;51.362;12.472;2022-08-19T00:40:42;60.03;;;29.45;;
74267;SDS011;62638;51.362;12.472;2022-08-19T00:43:12;60.58;;;29.38;;
74267;SDS011;62638;51.362;12.472;2022-08-19T00:45:38;59.85;;;29.13;;
74267;SDS011;62638;51.362;12.472;2022-08-19T00:48:07;55.47;;;28.23;;
74267;SDS011;62638;51.362;12.472;2022-08-19T00:50:33;51.83;;;28.27;;
74267;SDS011;62638;51.362;12.472;2022-08-19T00:52:59;61.10;;;30.38;;
74267;SDS011;62638;51.362;12.472;2022-08-19T00:55:29;60.05;;;27.38;;
74267;SDS011;62638;51.362;12.472;2022-08-19T00:58:07;72.78;;;31.77;;
74267;SDS011;62638;51.362;12.472;2022-08-19T01:00:35;56.63;;;28.17;;
74267;SDS011;62638;51.362;12.472;2022-08-19T01:03:13;55.55;;;28.73;;
74267;SDS011;62638;51.362;12.472;2022-08-19T01:05:41;63.35;;;30.05;;
74267;SDS011;62638;51.362;12.472;2022-08-19T01:08:09;67.35;;;31.73;;
74267;SDS011;62638;51.362;12.472;2022-08-19T01:10:40;71.75;;;32.90;;
74267;SDS011;62638;51.362;12.472;2022-08-19T01:13:08;71.60;;;32.63;;
74267;SDS011;62638;51.362;12.472;2022-08-19T01:15:45;80.85;;;35.50;;
74267;SDS011;62638;51.362;12.472;2022-08-19T01:18:14;75.75;;;34.95;;
74267;SDS011;62638;51.362;12.472;2022-08-19T01:20:42;86.88;;;36.60;;
74267;SDS011;62638;51.362;12.472;2022-08-19T01:23:08;75.10;;;34.40;;
74267;SDS011;62638;51.362;12.472;2022-08-19T01:25:36;73.53;;;35.22;;
74267;SDS011;62638;51.362;12.472;2022-08-19T01:28:08;81.28;;;35.28;;
74267;SDS011;62638;51.362;12.472;2022-08-19T01:30:40;82.15;;;34.92;;
74267;SDS011;62638;51.362;12.472;2022-08-19T01:33:05;86.83;;;37.77;;
74267;SDS011;62638;51.362;12.472;2022-08-19T01:35:30;81.50;;;37.07;;
74267;SDS011;62638;51.362;12.472;2022-08-19T01:37:58;82.80;;;35.90;;
74267;SDS011;62638;51.362;12.472;2022-08-19T01:40:28;74.60;;;33.08;;
74267;SDS011;62638;51.362;12.472;2022-08-19T01:42:56;77.53;;;34.55;;
74267;SDS011;62638;51.362;12.472;2022-08-19T01:45:24;85.28;;;37.80;;
74267;SDS011;62638;51.362;12.472;2022-08-19T01:47:51;78.72;;;35.55;;
74267;SDS011;62638;51.362;12.472;2022-08-19T01:50:17;82.22;;;34.42;;
74267;SDS011;62638;51.362;12.472;2022-08-19T01:52:43;88.40;;;39.42;;
74267;SDS011;62638;51.362;12.472;2022-08-19T01:55:11;86.45;;;38.08;;
74267;SDS011;62638;51.362;12.472;2022-08-19T01:57:39;78.47;;;34.35;;
74267;SDS011;62638;51.362;12.472;2022-08-19T02:00:10;81.90;;;35.78;;
74267;SDS011;62638;51.362;12.472;2022-08-19T02:02:39;74.93;;;34.38;;
74267;SDS011;62638;51.362;12.472;2022-08-19T02:05:04;86.75;;;36.35;;
74267;SDS011;62638;51.362;12.472;2022-08-19T02:12:23;75.35;;;31.83;;
74267;SDS011;62638;51.362;12.472;2022-08-19T02:14:48;89.25;;;37.95;;
74267;SDS011;62638;51.362;12.472;2022-08-19T02:17:13;76.20;;;34.30;;
74267;SDS011;62638;51.362;12.472;2022-08-19T02:19:39;84.75;;;34.40;;
74267;SDS011;62638;51.362;12.472;2022-08-19T02:22:05;81.43;;;33.70;;
74267;SDS011;62638;51.362;12.472;2022-08-19T02:24:30;77.27;;;30.97;;
74267;SDS011;62638;51.362;12.472;2022-08-19T02:26:55;65.32;;;31.02;;
74267;SDS011;62638;51.362;12.472;2022-08-19T02:29:23;68.50;;;32.42;;
74267;SDS011;62638;51.362;12.472;2022-08-19T02:31:49;66.70;;;30.42;;
74267;SDS011;62638;51.362;12.472;2022-08-19T02:34:14;66.97;;;34.90;;
74267;SDS011;62638;51.362;12.472;2022-08-19T02:36:39;67.03;;;32.25;;
74267;SDS011;62638;51.362;12.472;2022-08-19T02:39:04;62.73;;;31.47;;
74267;SDS011;62638;51.362;12.472;2022-08-19T02:41:31;61.13;;;27.27;;
74267;SDS011;62638;51.362;12.472;2022-08-19T02:43:58;58.22;;;27.23;;
74267;SDS011;62638;51.362;12.472;2022-08-19T02:46:26;53.70;;;26.80;;
74267;SDS011;62638;51.362;12.472;2022-08-19T02:48:59;58.78;;;28.58;;
74267;SDS011;62638;51.362;12.472;2022-08-19T02:51:28;53.95;;;27.40;;
74267;SDS011;62638;51.362;12.472;2022-08-19T02:53:56;48.08;;;26.13;;
74267;SDS011;62638;51.362;12.472;2022-08-19T02:56:22;51.58;;;27.02;;
74267;SDS011;62638;51.362;12.472;2022-08-19T02:58:49;62.30;;;31.95;;
74267;SDS011;62638;51.362;12.472;2022-08-19T03:01:20;56.33;;;27.65;;
74267;SDS011;62638;51.362;12.472;2022-08-19T03:03:49;53.50;;;26.85;;
74267;SDS011;62638;51.362;12.472;2022-08-19T03:06:16;56.83;;;29.25;;
74267;SDS011;62638;51.362;12.472;2022-08-19T03:08:43;55.28;;;28.00;;
74267;SDS011;62638;51.362;12.472;2022-08-19T03:11:18;55.45;;;28.98;;
74267;SDS011;62638;51.362;12.472;2022-08-19T03:13:46;46.63;;;26.92;;
74267;SDS011;62638;51.362;12.472;2022-08-19T03:16:13;50.58;;;26.33;;
74267;SDS011;62638;51.362;12.472;2022-08-19T03:18:39;43.97;;;25.08;;
74267;SDS011;62638;51.362;12.472;2022-08-19T03:21:05;43.55;;;25.08;;
74267;SDS011;62638;51.362;12.472;2022-08-19T03:23:31;49.10;;;25.77;;
74267;SDS011;62638;51.362;12.472;2022-08-19T03:25:57;45.70;;;25.38;;
74267;SDS011;62638;51.362;12.472;2022-08-19T03:28:22;39.30;;;23.38;;
74267;SDS011;62638;51.362;12.472;2022-08-19T03:30:55;43.50;;;25.13;;
74267;SDS011;62638;51.362;12.472;2022-08-19T03:33:22;47.35;;;26.30;;
74267;SDS011;62638;51.362;12.472;2022-08-19T03:35:59;41.97;;;24.58;;
74267;SDS011;62638;51.362;12.472;2022-08-19T03:38:39;38.33;;;22.33;;
74267;SDS011;62638;51.362;12.472;2022-08-19T03:41:08;43.75;;;24.88;;
74267;SDS011;62638;51.362;12.472;2022-08-19T03:43:36;46.83;;;25.83;;
74267;SDS011;62638;51.362;12.472;2022-08-19T03:46:10;43.38;;;23.63;;
74267;SDS011;62638;51.362;12.472;2022-08-19T03:48:39;47.30;;;24.75;;
74267;SDS011;62638;51.362;12.472;2022-08-19T03:51:05;50.75;;;26.25;;
74267;SDS011;62638;51.362;12.472;2022-08-19T03:53:32;51.45;;;27.00;;
74267;SDS011;62638;51.362;12.472;2022-08-19T03:55:59;50.72;;;26.10;;
74267;SDS011;62638;51.362;12.472;2022-08-19T03:58:26;56.80;;;28.95;;
74267;SDS011;62638;51.362;12.472;2022-08-19T04:00:54;53.55;;;28.02;;
74267;SDS011;62638;51.362;12.472;2022-08-19T04:03:20;48.97;;;25.63;;
74267;SDS011;62638;51.362;12.472;2022-08-19T04:05:46;50.75;;;27.33;;
74267;SDS011;62638;51.362;12.472;2022-08-19T04:08:12;47.67;;;26.02;;
74267;SDS011;62638;51.362;12.472;2022-08-19T04:10:40;53.83;;;27.45;;
74267;SDS011;62638;51.362;12.472;2022-08-19T04:13:06;46.83;;;24.73;;
74267;SDS011;62638;51.362;12.472;2022-08-19T04:15:33;45.88;;;25.35;;
74267;SDS011;62638;51.362;12.472;2022-08-19T04:18:06;52.42;;;28.17;;
74267;SDS011;62638;51.362;12.472;2022-08-19T04:20:33;54.03;;;28.77;;
74267;SDS011;62638;51.362;12.472;2022-08-19T04:23:03;52.60;;;28.17;;
74267;SDS011;62638;51.362;12.472;2022-08-19T04:25:33;48.37;;;26.47;;
74267;SDS011;62638;51.362;12.472;2022-08-19T04:28:00;43.10;;;24.95;;
74267;SDS011;62638;51.362;12.472;2022-08-19T04:30:26;43.10;;;25.58;;
74267;SDS011;62638;51.362;12.472;2022-08-19T04:32:51;42.97;;;23.37;;
74267;SDS011;62638;51.362;12.472;2022-08-19T04:35:16;46.10;;;27.00;;
74267;SDS011;62638;51.362;12.472;2022-08-19T04:37:41;44.33;;;25.48;;
74267;SDS011;62638;51.362;12.472;2022-08-19T04:40:07;49.23;;;25.40;;
74267;SDS011;62638;51.362;12.472;2022-08-19T04:42:51;53.80;;;28.40;;
74267;SDS011;62638;51.362;12.472;2022-08-19T04:45:18;48.90;;;28.73;;
74267;SDS011;62638;51.362;12.472;2022-08-19T04:47:43;52.10;;;30.08;;
74267;SDS011;62638;51.362;12.472;2022-08-19T04:50:09;60.47;;;30.90;;
74267;SDS011;62638;51.362;12.472;2022-08-19T04:52:36;62.63;;;32.58;;
74267;SDS011;62638;51.362;12.472;2022-08-19T04:55:01;61.28;;;33.67;;
74267;SDS011;62638;51.362;12.472;2022-08-19T04:57:27;60.40;;;32.42;;
74267;SDS011;62638;51.362;12.472;2022-08-19T04:59:53;59.90;;;31.13;;
74267;SDS011;62638;51.362;12.472;2022-08-19T05:02:20;56.20;;;30.02;;
74267;SDS011;62638;51.362;12.472;2022-08-19T05:04:50;58.97;;;29.17;;
74267;SDS011;62638;51.362;12.472;2022-08-19T05:07:16;50.88;;;28.52;;
74267;SDS011;62638;51.362;12.472;2022-08-19T05:09:41;54.35;;;29.70;;
74267;SDS011;62638;51.362;12.472;2022-08-19T05:12:07;55.05;;;31.38;;
74267;SDS011;62638;51.362;12.472;2022-08-19T05:14:33;55.88;;;29.65;;
74267;SDS011;62638;51.362;12.472;2022-08-19T05:16:58;58.85;;;32.17;;
74267;SDS011;62638;51.362;12.472;2022-08-19T05:19:25;60.65;;;31.17;;
74267;SDS011;62638;51.362;12.472;2022-08-19T05:22:09;64.90;;;32.95;;
74267;SDS011;62638;51.362;12.472;2022-08-19T05:24:53;67.22;;;34.22;;
74267;SDS011;62638;51.362;12.472;2022-08-19T05:27:19;75.50;;;37.30;;
74267;SDS011;62638;51.362;12.472;2022-08-19T05:29:44;75.50;;;35.67;;
74267;SDS011;62638;51.362;12.472;2022-08-19T05:32:09;65.80;;;34.10;;
74267;SDS011;62638;51.362;12.472;2022-08-19T05:34:35;66.85;;;33.97;;
74267;SDS011;62638;51.362;12.472;2022-08-19T05:37:03;74.95;;;37.67;;
74267;SDS011;62638;51.362;12.472;2022-08-19T05:39:29;70.68;;;36.33;;
74267;SDS011;62638;51.362;12.472;2022-08-19T05:41:58;68.47;;;34.70;;
74267;SDS011;62638;51.362;12.472;2022-08-19T05:44:28;67.25;;;33.72;;
74267;SDS011;62638;51.362;12.472;2022-08-19T05:46:56;75.63;;;36.97;;
74267;SDS011;62638;51.362;12.472;2022-08-19T05:49:23;71.13;;;35.08;;
74267;SDS011;62638;51.362;12.472;2022-08-19T05:51:50;74.93;;;36.75;;
74267;SDS011;62638;51.362;12.472;2022-08-19T05:54:15;66.38;;;33.25;;
74267;SDS011;62638;51.362;12.472;2022-08-19T05:56:41;73.28;;;35.15;;
74267;SDS011;62638;51.362;12.472;2022-08-19T05:59:08;72.78;;;35.00;;
74267;SDS011;62638;51.362;12.472;2022-08-19T06:01:37;69.22;;;34.72;;
74267;SDS011;62638;51.362;12.472;2022-08-19T06:04:04;71.53;;;34.25;;
74267;SDS011;62638;51.362;12.472;2022-08-19T06:06:29;83.60;;;38.17;;
74267;SDS011;62638;51.362;12.472;2022-08-19T06:08:54;72.38;;;36.00;;
74267;SDS011;62638;51.362;12.472;2022-08-19T06:11:24;77.85;;;37.90;;
74267;SDS011;62638;51.362;12.472;2022-08-19T06:14:02;71.93;;;34.70;;
74267;SDS011;62638;51.362;12.472;2022-08-19T06:16:30;68.55;;;36.22;;
74267;SDS011;62638;51.362;12.472;2022-08-19T06:18:59;79.00;;;37.30;;
74267;SDS011;62638;51.362;12.472;2022-08-19T06:21:26;73.18;;;36.90;;
74267;SDS011;62638;51.362;12.472;2022-08-19T06:23:53;68.72;;;35.00;;
74267;SDS011;62638;51.362;12.472;2022-08-19T06:26:21;65.93;;;35.55;;
74267;SDS011;62638;51.362;12.472;2022-08-19T06:28:46;66.35;;;35.88;;
74267;SDS011;62638;51.362;12.472;2022-08-19T06:31:16;71.22;;;36.10;;
74267;SDS011;62638;51.362;12.472;2022-08-19T06:33:43;71.03;;;35.65;;
74267;SDS011;62638;51.362;12.472;2022-08-19T06:36:23;71.93;;;37.60;;
74267;SDS011;62638;51.362;12.472;2022-08-19T06:38:55;69.15;;;34.45;;
74267;SDS011;62638;51.362;12.472;2022-08-19T06:41:22;71.20;;;35.17;;
74267;SDS011;62638;51.362;12.472;2022-08-19T06:43:48;76.00;;;37.45;;
74267;SDS011;62638;51.362;12.472;2022-08-19T06:46:14;71.95;;;36.78;;
74267;SDS011;62638;51.362;12.472;2022-08-19T06:48:41;72.85;;;36.97;;
74267;SDS011;62638;51.362;12.472;2022-08-19T06:51:06;76.50;;;36.90;;
74267;SDS011;62638;51.362;12.472;2022-08-19T06:53:32;65.63;;;35.35;;
74267;SDS011;62638;51.362;12.472;2022-08-19T06:55:58;70.65;;;36.78;;
74267;SDS011;62638;51.362;12.472;2022-08-19T06:58:27;76.75;;;38.53;;
74267;SDS011;62638;51.362;12.472;2022-08-19T07:00:57;71.72;;;35.53;;
74267;SDS011;62638;51.362;12.472;2022-08-19T07:03:26;73.97;;;37.08;;
74267;SDS011;62638;51.362;12.472;2022-08-19T07:05:53;74.63;;;36.35;;
74267;SDS011;62638;51.362;12.472;2022-08-19T07:08:19;81.77;;;38.87;;
74267;SDS011;62638;51.362;12.472;2022-08-19T07:10:44;84.87;;;37.70;;
74267;SDS011;62638;51.362;12.472;2022-08-19T07:13:10;83.22;;;37.92;;
74267;SDS011;62638;51.362;12.472;2022-08-19T07:15:36;80.55;;;37.30;;
74267;SDS011;62638;51.362;12.472;2022-08-19T07:18:02;83.45;;;38.55;;
74267;SDS011;62638;51.362;12.472;2022-08-19T07:20:28;83.47;;;38.38;;
74267;SDS011;62638;51.362;12.472;2022-08-19T07:22:53;82.13;;;38.55;;
74267;SDS011;62638;51.362;12.472;2022-08-19T07:25:18;93.77;;;40.00;;
74267;SDS011;62638;51.362;12.472;2022-08-19T07:27:45;88.57;;;37.90;;
74267;SDS011;62638;51.362;12.472;2022-08-19T07:30:14;77.43;;;35.97;;
74267;SDS011;62638;51.362;12.472;2022-08-19T07:32:39;88.80;;;37.87;;
74267;SDS011;62638;51.362;12.472;2022-08-19T07:35:05;82.20;;;36.55;;
74267;SDS011;62638;51.362;12.472;2022-08-19T07:37:31;97.13;;;41.17;;
74267;SDS011;62638;51.362;12.472;2022-08-19T07:39:56;93.40;;;40.22;;
74267;SDS011;62638;51.362;12.472;2022-08-19T07:42:21;86.70;;;39.67;;
74267;SDS011;62638;51.362;12.472;2022-08-19T07:44:47;86.65;;;36.35;;
74267;SDS011;62638;51.362;12.472;2022-08-19T07:47:12;89.53;;;37.60;;
74267;SDS011;62638;51.362;12.472;2022-08-19T07:49:40;83.35;;;35.85;;
74267;SDS011;62638;51.362;12.472;2022-08-19T07:52:07;86.88;;;38.08;;
74267;SDS011;62638;51.362;12.472;2022-08-19T07:54:34;87.57;;;37.47;;
74267;SDS011;62638;51.362;12.472;2022-08-19T07:57:01;85.00;;;36.55;;
74267;SDS011;62638;51.362;12.472;2022-08-19T07:59:27;85.72;;;37.63;;
74267;SDS011;62638;51.362;12.472;2022-08-19T08:01:53;81.57;;;36.25;;
74267;SDS011;62638;51.362;12.472;2022-08-19T08:04:19;84.80;;;36.85;;
74267;SDS011;62638;51.362;12.472;2022-08-19T08:07:17;79.90;;;36.95;;
74267;SDS011;62638;51.362;12.472;2022-08-19T08:10:01;79.10;;;36.13;;
74267;SDS011;62638;51.362;12.472;2022-08-19T08:12:30;83.80;;;34.95;;
74267;SDS011;62638;51.362;12.472;2022-08-19T08:15:00;82.80;;;36.97;;
74267;SDS011;62638;51.362;12.472;2022-08-19T08:17:28;89.03;;;38.28;;
74267;SDS011;62638;51.362;12.472;2022-08-19T08:19:55;78.78;;;36.25;;
74267;SDS011;62638;51.362;12.472;2022-08-19T08:22:21;79.32;;;36.85;;
74267;SDS011;62638;51.362;12.472;2022-08-19T08:25:07;75.13;;;34.30;;
74267;SDS011;62638;51.362;12.472;2022-08-19T08:27:36;80.38;;;37.42;;
74267;SDS011;62638;51.362;12.472;2022-08-19T08:30:05;69.70;;;33.90;;
74267;SDS011;62638;51.362;12.472;2022-08-19T08:32:35;72.07;;;36.13;;
74267;SDS011;62638;51.362;12.472;2022-08-19T08:35:05;63.90;;;33.45;;
74267;SDS011;62638;51.362;12.472;2022-08-19T08:37:33;71.55;;;33.75;;
74267;SDS011;62638;51.362;12.472;2022-08-19T08:40:01;61.28;;;32.33;;
74267;SDS011;62638;51.362;12.472;2022-08-19T08:42:34;75.95;;;35.53;;
74267;SDS011;62638;51.362;12.472;2022-08-19T08:45:10;79.38;;;37.25;;
74267;SDS011;62638;51.362;12.472;2022-08-19T08:47:40;70.95;;;35.03;;
74267;SDS011;62638;51.362;12.472;2022-08-19T08:50:18;74.40;;;38.58;;
74267;SDS011;62638;51.362;12.472;2022-08-19T08:52:51;66.00;;;34.33;;
74267;SDS011;62638;51.362;12.472;2022-08-19T08:55:21;71.88;;;32.92;;
74267;SDS011;62638;51.362;12.472;2022-08-19T08:58:03;58.60;;;32.03;;
74267;SDS011;62638;51.362;12.472;2022-08-19T09:00:33;65.82;;;36.03;;
74267;SDS011;62638;51.362;12.472;2022-08-19T09:03:02;68.93;;;34.40;;
74267;SDS011;62638;51.362;12.472;2022-08-19T09:05:45;72.97;;;36.20;;
74267;SDS011;62638;51.362;12.472;2022-08-19T09:10:57;56.90;;;28.95;;
74267;SDS011;62638;51.362;12.472;2022-08-19T09:13:28;60.93;;;30.93;;
74267;SDS011;62638;51.362;12.472;2022-08-19T09:16:12;60.17;;;33.20;;
74267;SDS011;62638;51.362;12.472;2022-08-19T09:18:46;55.13;;;29.55;;
74267;SDS011;62638;51.362;12.472;2022-08-19T09:21:14;62.70;;;31.10;;
74267;SDS011;62638;51.362;12.472;2022-08-19T09:23:40;55.47;;;30.15;;
74267;SDS011;62638;51.362;12.472;2022-08-19T09:26:07;52.80;;;28.40;;
74267;SDS011;62638;51.362;12.472;2022-08-19T09:28:38;52.50;;;27.63;;
74267;SDS011;62638;51.362;12.472;2022-08-19T09:31:07;48.40;;;27.50;;
74267;SDS011;62638;51.362;12.472;2022-08-19T09:33:32;53.13;;;27.93;;
74267;SDS011;62638;51.362;12.472;2022-08-19T09:36:01;51.47;;;29.27;;
74267;SDS011;62638;51.362;12.472;2022-08-19T09:38:28;48.65;;;28.75;;
74267;SDS011;62638;51.362;12.472;2022-08-19T09:40:53;51.67;;;28.45;;
74267;SDS011;62638;51.362;12.472;2022-08-19T09:43:19;52.50;;;27.27;;
74267;SDS011;62638;51.362;12.472;2022-08-19T09:45:44;51.05;;;28.27;;
74267;SDS011;62638;51.362;12.472;2022-08-19T09:48:09;45.03;;;24.97;;
74267;SDS011;62638;51.362;12.472;2022-08-19T09:50:34;45.97;;;26.00;;
74267;SDS011;62638;51.362;12.472;2022-08-19T09:53:01;44.75;;;26.80;;
74267;SDS011;62638;51.362;12.472;2022-08-19T09:55:26;42.87;;;24.73;;
74267;SDS011;62638;51.362;12.472;2022-08-19T09:57:53;45.22;;;25.67;;
74267;SDS011;62638;51.362;12.472;2022-08-19T10:00:18;44.35;;;25.83;;
74267;SDS011;62638;51.362;12.472;2022-08-19T10:02:44;42.67;;;24.67;;
74267;SDS011;62638;51.362;12.472;2022-08-19T10:05:09;43.40;;;24.80;;
74267;SDS011;62638;51.362;12.472;2022-08-19T10:07:53;45.22;;;24.38;;
74267;SDS011;62638;51.362;12.472;2022-08-19T10:10:18;42.15;;;26.17;;
74267;SDS011;62638;51.362;12.472;2022-08-19T10:12:44;48.50;;;25.40;;
74267;SDS011;62638;51.362;12.472;2022-08-19T10:15:12;42.13;;;23.77;;
74267;SDS011;62638;51.362;12.472;2022-08-19T10:17:37;37.47;;;22.63;;
74267;SDS011;62638;51.362;12.472;2022-08-19T10:20:03;37.77;;;23.43;;
74267;SDS011;62638;51.362;12.472;2022-08-19T10:22:29;36.10;;;21.45;;
74267;SDS011;62638;51.362;12.472;2022-08-19T10:24:55;34.88;;;20.58;;
74267;SDS011;62638;51.362;12.472;2022-08-19T10:27:21;35.15;;;20.75;;
74267;SDS011;62638;51.362;12.472;2022-08-19T10:29:47;39.00;;;21.58;;
74267;SDS011;62638;51.362;12.472;2022-08-19T10:32:12;38.40;;;21.35;;
74267;SDS011;62638;51.362;12.472;2022-08-19T10:34:38;32.05;;;19.77;;
74267;SDS011;62638;51.362;12.472;2022-08-19T10:37:04;33.20;;;19.58;;
74267;SDS011;62638;51.362;12.472;2022-08-19T10:39:31;33.67;;;19.33;;
74267;SDS011;62638;51.362;12.472;2022-08-19T10:41:58;32.53;;;19.02;;
74267;SDS011;62638;51.362;12.472;2022-08-19T10:44:23;33.38;;;20.75;;
74267;SDS011;62638;51.362;12.472;2022-08-19T10:46:49;32.30;;;20.10;;
74267;SDS011;62638;51.362;12.472;2022-08-19T10:49:14;27.58;;;17.38;;
74267;SDS011;62638;51.362;12.472;2022-08-19T10:51:40;26.50;;;17.53;;
74267;SDS011;62638;51.362;12.472;2022-08-19T10:54:25;31.17;;;18.50;;
74267;SDS011;62638;51.362;12.472;2022-08-19T10:57:09;22.35;;;14.43;;
74267;SDS011;62638;51.362;12.472;2022-08-19T10:59:35;29.10;;;18.25;;
74267;SDS011;62638;51.362;12.472;2022-08-19T11:02:01;26.73;;;17.25;;
74267;SDS011;62638;51.362;12.472;2022-08-19T11:04:28;24.05;;;15.90;;
74267;SDS011;62638;51.362;12.472;2022-08-19T11:06:53;22.60;;;15.18;;
74267;SDS011;62638;51.362;12.472;2022-08-19T11:09:21;25.23;;;16.15;;
74267;SDS011;62638;51.362;12.472;2022-08-19T11:11:52;21.73;;;14.70;;
74267;SDS011;62638;51.362;12.472;2022-08-19T11:14:18;23.85;;;15.13;;
74267;SDS011;62638;51.362;12.472;2022-08-19T11:16:45;22.10;;;15.20;;
74267;SDS011;62638;51.362;12.472;2022-08-19T11:19:12;27.83;;;16.20;;
74267;SDS011;62638;51.362;12.472;2022-08-19T11:21:40;25.35;;;14.82;;
74267;SDS011;62638;51.362;12.472;2022-08-19T11:24:08;20.23;;;13.95;;
74267;SDS011;62638;51.362;12.472;2022-08-19T11:26:37;21.52;;;14.10;;
74267;SDS011;62638;51.362;12.472;2022-08-19T11:29:03;21.02;;;14.52;;
74267;SDS011;62638;51.362;12.472;2022-08-19T11:33:59;21.48;;;13.77;;
74267;SDS011;62638;51.362;12.472;2022-08-19T11:36:27;21.02;;;14.57;;
74267;SDS011;62638;51.362;12.472;2022-08-19T11:38:53;20.50;;;13.75;;
74267;SDS011;62638;51.362;12.472;2022-08-19T11:41:19;25.88;;;13.82;;
74267;SDS011;62638;51.362;12.472;2022-08-19T11:43:47;21.13;;;12.77;;
74267;SDS011;62638;51.362;12.472;2022-08-19T11:46:13;19.30;;;13.25;;
74267;SDS011;62638;51.362;12.472;2022-08-19T11:48:41;19.48;;;13.60;;
74267;SDS011;62638;51.362;12.472;2022-08-19T11:51:12;19.42;;;12.95;;
74267;SDS011;62638;51.362;12.472;2022-08-19T11:53:41;18.30;;;13.32;;
74267;SDS011;62638;51.362;12.472;2022-08-19T11:56:07;16.75;;;11.93;;
74267;SDS011;62638;51.362;12.472;2022-08-19T11:58:34;15.68;;;10.52;;
74267;SDS011;62638;51.362;12.472;2022-08-19T12:01:00;14.02;;;10.85;;
74267;SDS011;62638;51.362;12.472;2022-08-19T12:03:26;17.83;;;11.30;;
74267;SDS011;62638;51.362;12.472;2022-08-19T12:05:53;15.57;;;11.15;;
74267;SDS011;62638;51.362;12.472;2022-08-19T12:08:18;16.45;;;10.65;;
74267;SDS011;62638;51.362;12.472;2022-08-19T12:10:44;13.77;;;10.60;;
74267;SDS011;62638;51.362;12.472;2022-08-19T12:13:10;15.30;;;11.45;;
74267;SDS011;62638;51.362;12.472;2022-08-19T12:15:39;15.85;;;11.00;;
74267;SDS011;62638;51.362;12.472;2022-08-19T12:18:08;15.18;;;10.30;;
74267;SDS011;62638;51.362;12.472;2022-08-19T12:20:35;16.60;;;11.70;;
74267;SDS011;62638;51.362;12.472;2022-08-19T12:23:02;17.48;;;10.82;;
74267;SDS011;62638;51.362;12.472;2022-08-19T12:25:28;16.23;;;11.02;;
74267;SDS011;62638;51.362;12.472;2022-08-19T12:27:54;14.75;;;10.40;;
74267;SDS011;62638;51.362;12.472;2022-08-19T12:30:19;14.45;;;9.98;;
74267;SDS011;62638;51.362;12.472;2022-08-19T12:32:45;16.85;;;11.07;;
74267;SDS011;62638;51.362;12.472;2022-08-19T12:35:10;16.97;;;10.43;;
74267;SDS011;62638;51.362;12.472;2022-08-19T12:37:36;16.38;;;11.38;;
74267;SDS011;62638;51.362;12.472;2022-08-19T12:40:02;15.55;;;10.20;;
74267;SDS011;62638;51.362;12.472;2022-08-19T12:42:28;16.35;;;10.93;;
74267;SDS011;62638;51.362;12.472;2022-08-19T12:44:55;19.83;;;12.20;;
74267;SDS011;62638;51.362;12.472;2022-08-19T12:47:21;16.67;;;11.63;;
74267;SDS011;62638;51.362;12.472;2022-08-19T12:49:46;16.57;;;10.67;;
74267;SDS011;62638;51.362;12.472;2022-08-19T12:52:12;17.25;;;11.40;;
74267;SDS011;62638;51.362;12.472;2022-08-19T12:54:41;16.08;;;11.35;;
74267;SDS011;62638;51.362;12.472;2022-08-19T12:57:08;15.10;;;10.15;;
74267;SDS011;62638;51.362;12.472;2022-08-19T12:59:35;17.27;;;10.55;;
74267;SDS011;62638;51.362;12.472;2022-08-19T13:02:02;16.08;;;10.77;;
74267;SDS011;62638;51.362;12.472;2022-08-19T13:04:29;18.80;;;11.18;;
74267;SDS011;62638;51.362;12.472;2022-08-19T13:06:54;16.20;;;11.13;;
74267;SDS011;62638;51.362;12.472;2022-08-19T13:09:20;17.50;;;11.67;;
74267;SDS011;62638;51.362;12.472;2022-08-19T13:11:45;16.52;;;11.00;;
74267;SDS011;62638;51.362;12.472;2022-08-19T13:14:10;19.23;;;12.40;;
74267;SDS011;62638;51.362;12.472;2022-08-19T13:16:36;16.33;;;10.52;;
74267;SDS011;62638;51.362;12.472;2022-08-19T13:19:01;16.80;;;12.60;;
74267;SDS011;62638;51.362;12.472;2022-08-19T13:21:29;17.70;;;11.93;;
74267;SDS011;62638;51.362;12.472;2022-08-19T13:23:54;22.52;;;11.98;;
74267;SDS011;62638;51.362;12.472;2022-08-19T13:26:20;19.35;;;12.38;;
74267;SDS011;62638;51.362;12.472;2022-08-19T13:28:46;17.70;;;13.02;;
74267;SDS011;62638;51.362;12.472;2022-08-19T13:31:30;19.30;;;12.32;;
74267;SDS011;62638;51.362;12.472;2022-08-19T13:34:17;17.35;;;11.95;;
74267;SDS011;62638;51.362;12.472;2022-08-19T13:36:49;20.05;;;13.65;;
74267;SDS011;62638;51.362;12.472;2022-08-19T13:41:44;21.73;;;13.27;;
74267;SDS011;62638;51.362;12.472;2022-08-19T13:44:13;22.30;;;13.50;;
74267;SDS011;62638;51.362;12.472;2022-08-19T13:46:40;22.80;;;13.90;;
74267;SDS011;62638;51.362;12.472;2022-08-19T13:49:05;25.85;;;15.48;;
74267;SDS011;62638;51.362;12.472;2022-08-19T13:51:30;24.23;;;15.17;;
74267;SDS011;62638;51.362;12.472;2022-08-19T13:53:56;22.98;;;15.00;;
74267;SDS011;62638;51.362;12.472;2022-08-19T13:56:21;20.48;;;13.43;;
74267;SDS011;62638;51.362;12.472;2022-08-19T13:58:46;24.17;;;13.93;;
74267;SDS011;62638;51.362;12.472;2022-08-19T14:01:12;21.77;;;14.13;;
74267;SDS011;62638;51.362;12.472;2022-08-19T14:03:37;21.57;;;13.97;;
74267;SDS011;62638;51.362;12.472;2022-08-19T14:06:03;23.88;;;14.13;;
74267;SDS011;62638;51.362;12.472;2022-08-19T14:08:28;19.88;;;14.15;;
74267;SDS011;62638;51.362;12.472;2022-08-19T14:10:55;20.13;;;13.20;;
74267;SDS011;62638;51.362;12.472;2022-08-19T14:13:22;19.20;;;12.70;;
74267;SDS011;62638;51.362;12.472;2022-08-19T14:15:48;18.48;;;12.93;;
74267;SDS011;62638;51.362;12.472;2022-08-19T14:18:14;22.50;;;13.40;;
74267;SDS011;62638;51.362;12.472;2022-08-19T14:23:06;20.20;;;12.82;;
74267;SDS011;62638;51.362;12.472;2022-08-19T14:25:32;19.20;;;12.07;;
74267;SDS011;62638;51.362;12.472;2022-08-19T14:27:58;19.52;;;12.10;;